Tombstone, AZ

7:28 AM MST on January 26, 2015 (GMT -0700)
N7BOO | Change Station
CLOSE
Current Station
Personal Weather Station
Location: Tombstone, AZ
Elevation: 4472 ft
Nearby Weather Stations

Elev 4472 ft 31.73 °N, 110.05 °W | Updated 7 seconds ago

Mostly Cloudy
Mostly Cloudy
45.1 °F
Feels Like 45 °F
N
2.7
Wind Variable Wind from East
Gusts 4.0 mph

Today
High -- | Low -- °F
--% Chance of Precip.
Yesterday
High -- | Low -- °F
Precip. -- in
7:16 AM 5:49 PM
Waxing Crescent, 43% visible
Pressure 30.16 in
Visibility 10.0 miles
Clouds Few 8500 ft
Scattered Clouds 20000 ft
Overcast 26000 ft
Windchill 45 °F
Dew Point 23 °F
Humidity 41%
Rainfall 0.00 in
Snow Depth Not available.
UV 0 out of 12
Pollen 3.10 out of 12
Air Quality Not available.
Flu Activity Not available.
METAR KFHU 261355Z 03003KT 10SM FEW085 SCT200 OVC260 08/M06 A3022 RMK SLP211

More Conditions Fewer Conditions

Pressure 30.16 in
Visibility 10.0 miles
Clouds Few 8500 ft
Scattered Clouds 20000 ft
Overcast 26000 ft
Windchill 45 °F
Dew Point 23 °F
Humidity 41%
Rainfall 0.00 in
Snow Depth Not available.
UV 0 out of 12
Pollen 3.10 out of 12
Air Quality Not available.
Flu Activity Not available.
METAR KFHU 261355Z 03003KT 10SM FEW085 SCT200 OVC260 08/M06 A3022 RMK SLP211

More Conditions Fewer Conditions

10-Day Weather Forecast

Almanac

Astronomy

Jan. 26, 2015 Rise Set
Actual Time
Civil Twilight
Nautical Twilight
Astronomical Twilight
Moon
Length of Visible Light
Length of Day
Tomorrow will be .
, % of the Moon is Illuminated

Today's Extremes

State Highs State Lows

Community

WunderPhotos

Upload Photos

1,790,219 photos uploaded!

WunderBlogs® & News

Nearby

Air Quality

  Air Quality AQ Index Pollutant
Not available.

Snow Depth

Station Depth Elevation

Earthquake Activity

City Distance Mag. Time & Date
Minimum magnitude displayed is 2.5.

Coastal Water Temperatures

Place Temperature

Nearby Weather Stations